createdAt,value
2017-06-19T00:00:34.932Z,1019.06
2017-06-19T00:01:34.957Z,1019.03
2017-06-19T00:02:34.982Z,1019.03
2017-06-19T00:03:35.009Z,1019.03
2017-06-19T00:04:35.035Z,1019.04
2017-06-19T00:05:35.061Z,1019
2017-06-19T00:06:35.086Z,1019.02
2017-06-19T00:07:35.162Z,1019.02
2017-06-19T00:08:35.138Z,1019.02
2017-06-19T00:09:35.166Z,1019
2017-06-19T00:10:35.190Z,1019.02
2017-06-19T00:11:35.216Z,1019
2017-06-19T00:12:35.242Z,1019.03
2017-06-19T00:13:35.267Z,1018.99
2017-06-19T00:14:35.293Z,1018.99
2017-06-19T00:16:35.345Z,1018.95
2017-06-19T00:17:35.371Z,1018.94
2017-06-19T00:18:35.396Z,1018.98
2017-06-19T00:19:35.423Z,1018.94
2017-06-19T00:20:35.448Z,1018.94
2017-06-19T00:21:35.474Z,1018.91
2017-06-19T00:22:35.501Z,1018.92
2017-06-19T00:23:35.526Z,1018.92
2017-06-19T00:24:35.551Z,1018.93
2017-06-19T00:25:35.577Z,1018.93
2017-06-19T00:26:35.603Z,1018.89
2017-06-19T00:27:35.629Z,1018.9
2017-06-19T00:28:35.654Z,1018.9
2017-06-19T00:29:35.680Z,1018.91
2017-06-19T00:30:35.706Z,1018.87
2017-06-19T00:32:35.757Z,1018.87
2017-06-19T00:33:35.783Z,1018.85
2017-06-19T00:34:35.809Z,1018.87
2017-06-19T00:35:35.834Z,1018.84
2017-06-19T00:36:35.860Z,1018.83
2017-06-19T00:37:35.886Z,1018.86
2017-06-19T00:38:35.912Z,1018.86
2017-06-19T00:39:35.937Z,1018.84
2017-06-19T00:40:35.963Z,1018.87
2017-06-19T00:41:35.989Z,1018.89
2017-06-19T00:42:36.014Z,1018.83
2017-06-19T00:43:36.039Z,1018.85
2017-06-19T00:44:36.065Z,1018.85
2017-06-19T00:45:36.092Z,1018.84
2017-06-19T00:46:36.117Z,1018.82
2017-06-19T00:48:36.169Z,1018.82
2017-06-19T00:49:36.195Z,1018.81
2017-06-19T00:50:36.219Z,1018.79
2017-06-19T00:51:36.245Z,1018.81
2017-06-19T00:52:36.271Z,1018.8
2017-06-19T00:53:36.296Z,1018.78
2017-06-19T00:54:36.321Z,1018.74
2017-06-19T00:55:36.351Z,1018.8
2017-06-19T00:56:36.373Z,1018.77
2017-06-19T00:57:36.397Z,1018.76
2017-06-19T00:58:36.424Z,1018.77
2017-06-19T00:59:36.450Z,1018.83
2017-06-19T01:00:36.476Z,1018.85
2017-06-19T01:01:36.501Z,1018.81
2017-06-19T01:03:36.553Z,1018.84
2017-06-19T01:04:36.577Z,1018.85
2017-06-19T01:05:36.604Z,1018.83
2017-06-19T01:06:36.629Z,1018.84
2017-06-19T01:07:36.655Z,1018.86
2017-06-19T01:08:36.679Z,1018.81
2017-06-19T01:09:36.705Z,1018.81
2017-06-19T01:10:36.731Z,1018.83
2017-06-19T01:11:36.756Z,1018.84
2017-06-19T01:12:36.781Z,1018.8
2017-06-19T01:13:36.807Z,1018.79
2017-06-19T01:14:36.833Z,1018.77
2017-06-19T01:15:36.857Z,1018.81
2017-06-19T01:16:36.883Z,1018.79
2017-06-19T01:17:36.909Z,1018.81
2017-06-19T01:18:36.935Z,1018.79
2017-06-19T01:19:36.962Z,1018.8
2017-06-19T01:20:36.985Z,1018.82
2017-06-19T01:21:37.011Z,1018.83
2017-06-19T01:22:37.037Z,1018.84
2017-06-19T01:23:37.061Z,1018.82
2017-06-19T01:24:37.087Z,1018.81
2017-06-19T01:25:37.113Z,1018.82
2017-06-19T01:26:37.137Z,1018.81
2017-06-19T01:27:37.164Z,1018.81
2017-06-19T01:28:37.188Z,1018.81
2017-06-19T01:29:37.214Z,1018.79
2017-06-19T01:30:37.239Z,1018.81
2017-06-19T01:31:37.265Z,1018.8
2017-06-19T01:32:37.290Z,1018.79
2017-06-19T01:33:37.315Z,1018.79
2017-06-19T01:35:37.366Z,1018.75
2017-06-19T01:36:37.393Z,1018.79
2017-06-19T01:37:37.416Z,1018.81
2017-06-19T01:38:37.442Z,1018.81
2017-06-19T01:39:37.468Z,1018.76
2017-06-19T01:40:37.494Z,1018.78
2017-06-19T01:41:37.518Z,1018.8
2017-06-19T01:42:37.544Z,1018.82
2017-06-19T01:43:37.569Z,1018.84
2017-06-19T01:44:37.594Z,1018.8
2017-06-19T01:45:37.619Z,1018.82
2017-06-19T01:46:37.645Z,1018.8
2017-06-19T01:47:37.671Z,1018.81
2017-06-19T01:48:37.695Z,1018.82
2017-06-19T01:49:37.721Z,1018.83
2017-06-19T01:51:37.772Z,1018.83
2017-06-19T01:52:37.796Z,1018.81
2017-06-19T01:53:37.821Z,1018.82
2017-06-19T01:54:37.847Z,1018.84
2017-06-19T01:55:37.872Z,1018.81
2017-06-19T01:56:37.898Z,1018.81
2017-06-19T01:57:37.923Z,1018.81
2017-06-19T01:58:37.949Z,1018.81
2017-06-19T01:59:37.973Z,1018.8
2017-06-19T02:00:37.998Z,1018.79
2017-06-19T02:01:38.024Z,1018.8
2017-06-19T02:02:38.049Z,1018.8
2017-06-19T02:03:38.074Z,1018.84
2017-06-19T02:04:38.099Z,1018.83
2017-06-19T02:05:38.125Z,1018.84
2017-06-19T02:07:38.175Z,1018.8
2017-06-19T02:08:38.200Z,1018.8
2017-06-19T02:09:38.226Z,1018.79
2017-06-19T02:10:38.251Z,1018.78
2017-06-19T02:11:38.275Z,1018.8
2017-06-19T02:12:38.301Z,1018.74
2017-06-19T02:13:38.326Z,1018.78
2017-06-19T02:14:38.351Z,1018.75
2017-06-19T02:15:38.379Z,1018.78
2017-06-19T02:16:38.401Z,1018.79
2017-06-19T02:17:38.426Z,1018.75
2017-06-19T02:18:38.451Z,1018.74
2017-06-19T02:19:38.477Z,1018.78
2017-06-19T02:20:38.502Z,1018.83
2017-06-19T02:21:38.527Z,1018.82
2017-06-19T02:23:38.577Z,1018.8
2017-06-19T02:24:38.602Z,1018.81
2017-06-19T02:25:38.633Z,1018.81
2017-06-19T02:26:38.652Z,1018.77
2017-06-19T02:27:38.677Z,1018.77
2017-06-19T02:28:38.702Z,1018.79
2017-06-19T02:29:38.727Z,1018.83
2017-06-19T02:30:38.753Z,1018.86
2017-06-19T02:31:38.778Z,1018.82
2017-06-19T02:32:38.803Z,1018.86
2017-06-19T02:33:38.828Z,1018.86
2017-06-19T02:34:38.853Z,1018.88
2017-06-19T02:35:38.877Z,1018.87
2017-06-19T02:36:38.904Z,1018.85
2017-06-19T02:38:38.958Z,1018.88
2017-06-19T02:39:38.979Z,1018.87
2017-06-19T02:40:39.005Z,1018.86
2017-06-19T02:41:39.030Z,1018.88
2017-06-19T02:42:39.055Z,1018.91
2017-06-19T02:43:39.130Z,1018.91
2017-06-19T02:44:39.104Z,1018.95
2017-06-19T02:45:39.130Z,1018.94
2017-06-19T02:46:39.154Z,1018.95
2017-06-19T02:47:39.180Z,1018.95
2017-06-19T02:48:39.205Z,1018.97
2017-06-19T02:49:39.230Z,1018.99
2017-06-19T02:50:39.254Z,1019
2017-06-19T02:51:39.280Z,1018.99
2017-06-19T02:52:39.305Z,1018.96
2017-06-19T02:53:39.330Z,1019.01
2017-06-19T02:54:39.358Z,1018.99
2017-06-19T02:55:39.380Z,1019.03
2017-06-19T02:56:39.405Z,1018.96
2017-06-19T02:57:39.429Z,1018.94
2017-06-19T02:58:39.455Z,1018.98
2017-06-19T02:59:39.480Z,1018.99
2017-06-19T03:00:39.506Z,1018.95
2017-06-19T03:01:39.530Z,1018.96
2017-06-19T03:02:39.555Z,1018.94
2017-06-19T03:03:39.581Z,1018.94
2017-06-19T03:04:39.606Z,1018.93
2017-06-19T03:05:39.630Z,1018.95
2017-06-19T03:06:39.655Z,1018.97
2017-06-19T03:07:39.681Z,1018.95
2017-06-19T03:08:39.705Z,1018.95
2017-06-19T03:10:39.756Z,1018.95
2017-06-19T03:11:39.781Z,1018.98
2017-06-19T03:12:39.805Z,1018.99
2017-06-19T03:13:39.830Z,1018.98
2017-06-19T03:14:39.856Z,1018.99
2017-06-19T03:15:39.881Z,1018.99
2017-06-19T03:16:39.955Z,1018.95
2017-06-19T03:17:39.931Z,1018.99
2017-06-19T03:18:39.956Z,1019.04
2017-06-19T03:19:39.981Z,1019.05
2017-06-19T03:20:40.006Z,1019.02
2017-06-19T03:21:40.031Z,1019.03
2017-06-19T03:22:40.059Z,1019.04
2017-06-19T03:23:40.080Z,1019.06
2017-06-19T03:24:40.106Z,1019.07
2017-06-19T03:26:40.156Z,1019.05
2017-06-19T03:27:40.202Z,1019.03
2017-06-19T03:28:40.206Z,1019.04
2017-06-19T03:29:40.231Z,1019.03
2017-06-19T03:30:40.255Z,1019.04
2017-06-19T03:31:40.280Z,1019.03
2017-06-19T03:32:40.306Z,1019.04
2017-06-19T03:33:40.331Z,1019.05
2017-06-19T03:34:40.356Z,1019.03
2017-06-19T03:35:40.381Z,1019.06
2017-06-19T03:36:40.407Z,1019.09
2017-06-19T03:37:40.431Z,1019.08
2017-06-19T03:38:40.456Z,1019.1
2017-06-19T03:39:40.481Z,1019.14
2017-06-19T03:40:40.507Z,1019.11
2017-06-19T03:42:40.556Z,1019.13
2017-06-19T03:43:40.581Z,1019.12
2017-06-19T03:44:40.607Z,1019.13
2017-06-19T03:45:40.631Z,1019.13
2017-06-19T03:46:40.657Z,1019.13
2017-06-19T03:47:40.682Z,1019.15
2017-06-19T03:48:40.707Z,1019.15
2017-06-19T03:49:40.732Z,1019.17
2017-06-19T03:50:40.757Z,1019.17
2017-06-19T03:51:40.782Z,1019.17
2017-06-19T03:52:40.807Z,1019.19
2017-06-19T03:53:40.833Z,1019.19
2017-06-19T03:54:40.858Z,1019.2
2017-06-19T03:55:40.883Z,1019.16
2017-06-19T03:56:40.907Z,1019.19
2017-06-19T03:58:40.958Z,1019.16
2017-06-19T03:59:40.983Z,1019.15
2017-06-19T04:00:41.008Z,1019.16
2017-06-19T04:01:41.033Z,1019.21
2017-06-19T04:02:41.059Z,1019.18
2017-06-19T04:03:41.085Z,1019.19
2017-06-19T04:04:41.108Z,1019.18
2017-06-19T04:05:41.134Z,1019.16
2017-06-19T04:06:41.160Z,1019.16
2017-06-19T04:07:41.184Z,1019.17
2017-06-19T04:08:41.210Z,1019.22
2017-06-19T04:09:41.236Z,1019.35
2017-06-19T04:10:41.261Z,1019.48
2017-06-19T04:11:41.286Z,1019.63
2017-06-19T04:13:41.338Z,1019.67
2017-06-19T04:14:41.363Z,1019.72
2017-06-19T04:15:41.390Z,1019.73
2017-06-19T04:16:41.417Z,1019.76
2017-06-19T04:17:41.443Z,1019.75
2017-06-19T04:18:41.470Z,1019.76
2017-06-19T04:19:41.498Z,1019.77
2017-06-19T04:20:41.526Z,1019.78
2017-06-19T04:21:41.553Z,1019.76
2017-06-19T04:22:41.582Z,1019.79
2017-06-19T04:23:41.611Z,1019.76
2017-06-19T04:24:41.640Z,1019.77
2017-06-19T04:25:41.669Z,1019.82
2017-06-19T04:26:41.702Z,1019.79
2017-06-19T04:27:41.729Z,1019.76
2017-06-19T04:28:41.760Z,1019.81
2017-06-19T04:29:41.839Z,1019.85
2017-06-19T04:30:41.821Z,1019.89
2017-06-19T04:31:41.852Z,1019.85
2017-06-19T04:32:41.882Z,1019.85
2017-06-19T04:33:41.914Z,1019.88
2017-06-19T04:34:41.945Z,1019.88
2017-06-19T04:35:41.978Z,1019.89
2017-06-19T04:36:42.009Z,1019.87
2017-06-19T04:37:42.041Z,1019.92
2017-06-19T04:38:42.075Z,1019.87
2017-06-19T04:39:42.107Z,1019.9
2017-06-19T04:40:42.140Z,1019.91
2017-06-19T04:41:42.173Z,1019.95
2017-06-19T04:42:42.206Z,1019.93
2017-06-19T04:43:42.239Z,1019.9
2017-06-19T04:45:42.306Z,1019.85
2017-06-19T04:46:42.340Z,1019.84
2017-06-19T04:47:42.374Z,1019.82
2017-06-19T04:48:42.409Z,1019.87
2017-06-19T04:49:42.443Z,1019.83
2017-06-19T04:50:42.478Z,1019.83
2017-06-19T04:51:42.513Z,1019.81
2017-06-19T04:52:42.547Z,1019.81
2017-06-19T04:53:42.581Z,1019.82
2017-06-19T04:54:42.615Z,1019.81
2017-06-19T04:55:42.651Z,1019.77
2017-06-19T04:56:42.685Z,1019.72
2017-06-19T04:57:42.722Z,1019.7
2017-06-19T04:58:42.781Z,1019.66
2017-06-19T04:59:42.790Z,1019.62
2017-06-19T05:01:42.863Z,1019.61
2017-06-19T05:02:42.897Z,1019.65
2017-06-19T05:03:42.934Z,1019.65
2017-06-19T05:04:42.971Z,1019.65
2017-06-19T05:05:43.004Z,1019.68
2017-06-19T05:06:43.041Z,1019.66
2017-06-19T05:07:43.077Z,1019.68
2017-06-19T05:08:43.114Z,1019.69
2017-06-19T05:09:43.149Z,1019.74
2017-06-19T05:10:43.185Z,1019.72
2017-06-19T05:11:43.223Z,1019.75
2017-06-19T05:12:43.260Z,1019.74
2017-06-19T05:13:43.296Z,1019.77
2017-06-19T05:14:43.333Z,1019.76
2017-06-19T05:15:43.371Z,1019.83
2017-06-19T05:17:43.444Z,1019.84
2017-06-19T05:18:43.481Z,1019.85
2017-06-19T05:19:43.518Z,1019.93
2017-06-19T05:20:43.554Z,1019.89
2017-06-19T05:21:43.593Z,1019.97
2017-06-19T05:22:43.630Z,1019.95
2017-06-19T05:23:43.668Z,1020
2017-06-19T05:24:43.706Z,1019.99
2017-06-19T05:25:43.742Z,1020.05
2017-06-19T05:26:43.782Z,1020.06
2017-06-19T05:27:43.817Z,1020.03
2017-06-19T05:28:43.856Z,1020.04
2017-06-19T05:29:43.894Z,1020.06
2017-06-19T05:30:43.933Z,1020.05
2017-06-19T05:31:43.970Z,1020.04
2017-06-19T05:33:44.047Z,1020
2017-06-19T05:34:44.087Z,1019.98
2017-06-19T05:35:44.123Z,1019.99
2017-06-19T05:36:44.163Z,1020.02
2017-06-19T05:37:44.201Z,1020.02
2017-06-19T05:38:44.239Z,1020.01
2017-06-19T05:39:44.279Z,1019.99
2017-06-19T05:40:44.317Z,1020.01
2017-06-19T05:41:44.357Z,1019.99
2017-06-19T05:42:44.395Z,1020.03
2017-06-19T05:43:44.433Z,1020.03
2017-06-19T05:44:44.523Z,1019.99
2017-06-19T05:45:44.511Z,1019.99
2017-06-19T05:46:44.551Z,1020
2017-06-19T05:48:44.631Z,1020.05
2017-06-19T05:49:44.669Z,1020.03
2017-06-19T05:50:44.709Z,1020.05
2017-06-19T05:51:44.749Z,1020.07
2017-06-19T05:52:44.787Z,1020.06
2017-06-19T05:53:44.827Z,1020.07
2017-06-19T05:54:44.866Z,1020.07
2017-06-19T05:55:44.907Z,1020.12
2017-06-19T05:56:44.947Z,1020.08
2017-06-19T05:57:45.037Z,1020.08
2017-06-19T05:58:45.027Z,1020.09
2017-06-19T05:59:45.067Z,1020.14
2017-06-19T06:00:45.107Z,1020.11
2017-06-19T06:01:45.147Z,1020.11
2017-06-19T06:02:45.187Z,1020.08
2017-06-19T06:03:45.227Z,1020.03
2017-06-19T06:04:45.267Z,1020.04
2017-06-19T06:05:45.308Z,1020.02
2017-06-19T06:06:45.348Z,1020.02
2017-06-19T06:07:45.388Z,1020.02
2017-06-19T06:08:45.430Z,1019.96
2017-06-19T06:09:45.470Z,1019.94
2017-06-19T06:10:45.511Z,1019.94
2017-06-19T06:11:45.555Z,1019.88
2017-06-19T06:12:45.591Z,1019.9
2017-06-19T06:13:45.632Z,1019.89
2017-06-19T06:14:45.673Z,1019.88
2017-06-19T06:15:45.714Z,1019.95
2017-06-19T06:16:45.755Z,1019.94
2017-06-19T06:17:45.796Z,1019.94
2017-06-19T06:18:45.836Z,1019.97
2017-06-19T06:20:45.919Z,1019.95
2017-06-19T06:21:45.960Z,1020
2017-06-19T06:22:46.001Z,1019.99
2017-06-19T06:23:46.042Z,1019.96
2017-06-19T06:24:46.084Z,1020.01
2017-06-19T06:25:46.125Z,1019.99
2017-06-19T06:26:46.165Z,1020.01
2017-06-19T06:27:46.207Z,1020.07
2017-06-19T06:28:46.248Z,1020.03
2017-06-19T06:29:46.288Z,1020.13
2017-06-19T06:30:46.330Z,1020.17
2017-06-19T06:31:46.372Z,1020.26
2017-06-19T06:32:46.413Z,1020.34
2017-06-19T06:33:46.454Z,1020.34
2017-06-19T06:34:46.496Z,1020.4
2017-06-19T06:36:46.579Z,1020.44
2017-06-19T06:37:46.621Z,1020.45
2017-06-19T06:38:46.662Z,1020.46
2017-06-19T06:39:46.754Z,1020.47
2017-06-19T06:40:46.745Z,1020.48
2017-06-19T06:41:46.785Z,1020.46
2017-06-19T06:42:46.828Z,1020.47
2017-06-19T06:43:46.870Z,1020.38
2017-06-19T06:44:46.911Z,1020.34
2017-06-19T06:45:46.953Z,1020.43
2017-06-19T06:46:46.995Z,1020.4
2017-06-19T06:47:47.037Z,1020.43
2017-06-19T06:48:47.078Z,1020.43
2017-06-19T06:49:47.119Z,1020.48
2017-06-19T06:50:47.162Z,1020.4
2017-06-19T06:52:47.244Z,1020.41
2017-06-19T06:53:47.287Z,1020.4
2017-06-19T06:54:47.329Z,1020.43
2017-06-19T06:55:47.370Z,1020.42
2017-06-19T06:56:47.412Z,1020.39
2017-06-19T06:57:47.454Z,1020.4
2017-06-19T06:58:47.496Z,1020.39
2017-06-19T06:59:47.537Z,1020.4
2017-06-19T07:00:47.579Z,1020.43
2017-06-19T07:01:47.621Z,1020.42
2017-06-19T07:02:47.664Z,1020.48
2017-06-19T07:03:47.708Z,1020.49
2017-06-19T07:04:47.747Z,1020.5
2017-06-19T07:05:47.789Z,1020.52
2017-06-19T07:06:47.830Z,1020.55
2017-06-19T07:08:47.914Z,1020.56
2017-06-19T07:09:47.958Z,1020.55
2017-06-19T07:10:47.998Z,1020.57
2017-06-19T07:11:48.040Z,1020.58
2017-06-19T07:12:48.082Z,1020.62
2017-06-19T07:13:48.124Z,1020.62
2017-06-19T07:14:48.166Z,1020.7
2017-06-19T07:15:48.208Z,1020.69
2017-06-19T07:16:48.251Z,1020.72
2017-06-19T07:17:48.292Z,1020.77
2017-06-19T07:18:48.334Z,1020.76
2017-06-19T07:19:48.376Z,1020.77
2017-06-19T07:20:48.419Z,1020.89
2017-06-19T07:21:48.461Z,1020.89
2017-06-19T07:23:48.546Z,1021.06
2017-06-19T07:24:48.587Z,1021.09
2017-06-19T07:25:48.629Z,1021.08
2017-06-19T07:26:48.672Z,1021.07
2017-06-19T07:27:48.714Z,1021.12
2017-06-19T07:28:48.755Z,1021.14
2017-06-19T07:29:48.798Z,1021.16
2017-06-19T07:30:48.839Z,1021.13
2017-06-19T07:31:48.882Z,1021.08
2017-06-19T07:32:48.924Z,1021.18
2017-06-19T07:33:48.966Z,1021.18
2017-06-19T07:34:49.009Z,1020.77
2017-06-19T07:35:49.050Z,1020.08
2017-06-19T07:36:49.092Z,1019.91
2017-06-19T07:37:49.136Z,1019.91
2017-06-19T07:38:49.177Z,1019.89
2017-06-19T07:39:49.218Z,1019.92
2017-06-19T07:40:49.260Z,1019.84
2017-06-19T07:41:49.305Z,1019.86
2017-06-19T07:42:49.344Z,1019.84
2017-06-19T07:43:49.386Z,1019.87
2017-06-19T07:44:49.429Z,1019.84
2017-06-19T07:45:49.471Z,1019.85
2017-06-19T07:46:49.512Z,1019.84
2017-06-19T07:47:49.556Z,1019.85
2017-06-19T07:48:49.598Z,1019.85
2017-06-19T07:49:49.639Z,1019.22
2017-06-19T07:50:49.680Z,1019.23
2017-06-19T07:51:49.722Z,1019.26
2017-06-19T07:52:49.764Z,1019.26
2017-06-19T07:53:49.804Z,1019.25
2017-06-19T07:55:49.887Z,1019.29
2017-06-19T07:56:49.927Z,1019.28
2017-06-19T07:57:49.967Z,1019.38
2017-06-19T07:58:50.009Z,1019.81
2017-06-19T07:59:50.047Z,1019.9
2017-06-19T08:00:50.087Z,1020.07
2017-06-19T08:01:50.125Z,1020.1
2017-06-19T08:02:50.165Z,1020.07
2017-06-19T08:03:50.204Z,1019.2
2017-06-19T08:04:50.244Z,1019.86
2017-06-19T08:05:50.282Z,1020.01
2017-06-19T08:06:50.323Z,1019.95
2017-06-19T08:07:50.361Z,1019.57
2017-06-19T08:08:50.401Z,1019.18
2017-06-19T08:09:50.439Z,1019.16
2017-06-19T08:11:50.518Z,1019.21
2017-06-19T08:12:50.556Z,1019.53
2017-06-19T08:13:50.595Z,1019.72
2017-06-19T08:14:50.634Z,1019.22
2017-06-19T08:15:50.671Z,1019.44
2017-06-19T08:16:50.710Z,1019.74
2017-06-19T08:17:50.749Z,1019.18
2017-06-19T08:18:50.787Z,1019.2
2017-06-19T08:19:50.825Z,1019.76
2017-06-19T08:20:50.863Z,1019.74
2017-06-19T08:21:50.901Z,1019.17
2017-06-19T08:22:50.940Z,1019.11
2017-06-19T08:23:50.976Z,1019.08
2017-06-19T08:24:51.015Z,1019.03
2017-06-19T08:25:51.053Z,1019.09
2017-06-19T08:27:51.127Z,1019.11
2017-06-19T08:28:51.165Z,1019.08
2017-06-19T08:29:51.203Z,1019.09
2017-06-19T08:30:51.238Z,1019.06
2017-06-19T08:31:51.276Z,1019.12
2017-06-19T08:32:51.313Z,1019.07
2017-06-19T08:33:51.350Z,1019.11
2017-06-19T08:34:51.385Z,1019.11
2017-06-19T08:35:51.423Z,1019.07
2017-06-19T08:36:51.459Z,1019.23
2017-06-19T08:37:51.495Z,1019.46
2017-06-19T08:38:51.534Z,1019.41
2017-06-19T08:39:51.567Z,1019.42
2017-06-19T08:40:51.604Z,1019.52
2017-06-19T08:41:51.639Z,1019.63
2017-06-19T08:43:51.712Z,1019.56
2017-06-19T08:44:51.749Z,1019.58
2017-06-19T08:45:51.785Z,1019.6
2017-06-19T08:46:51.822Z,1019.51
2017-06-19T08:47:51.859Z,1019.48
2017-06-19T08:48:51.894Z,1019.47
2017-06-19T08:49:51.932Z,1019.42
2017-06-19T08:50:51.970Z,1019.27
2017-06-19T08:51:52.007Z,1019.14
2017-06-19T08:52:52.043Z,1019.11
2017-06-19T08:53:52.082Z,1019.12
2017-06-19T08:54:52.119Z,1019.05
2017-06-19T08:55:52.156Z,1019.07
2017-06-19T08:56:52.195Z,1019
2017-06-19T08:58:52.268Z,1018.98
2017-06-19T08:59:52.306Z,1018.93
2017-06-19T09:00:52.344Z,1018.9
2017-06-19T09:01:52.382Z,1018.86
2017-06-19T09:02:52.420Z,1018.86
2017-06-19T09:03:52.458Z,1018.81
2017-06-19T09:04:52.797Z,1018.78
2017-06-19T09:05:52.534Z,1018.77
2017-06-19T09:06:52.571Z,1018.75
2017-06-19T09:07:52.609Z,1018.77
2017-06-19T09:08:52.648Z,1018.74
2017-06-19T09:09:52.686Z,1018.71
2017-06-19T09:10:52.724Z,1018.69
2017-06-19T09:11:52.761Z,1018.69
2017-06-19T09:12:52.800Z,1018.67
2017-06-19T09:13:52.839Z,1018.65
2017-06-19T09:14:52.876Z,1018.62
2017-06-19T09:15:52.914Z,1018.63
2017-06-19T09:16:52.952Z,1018.57
2017-06-19T09:17:52.988Z,1018.6
2017-06-19T09:18:53.030Z,1018.57
2017-06-19T09:19:53.066Z,1018.59
2017-06-19T09:20:53.104Z,1018.58
2017-06-19T09:21:53.141Z,1018.58
2017-06-19T09:22:53.179Z,1018.57
2017-06-19T09:23:53.217Z,1018.57
2017-06-19T09:24:53.254Z,1018.52
2017-06-19T09:25:53.291Z,1018.53
2017-06-19T09:26:53.329Z,1018.51
2017-06-19T09:27:53.367Z,1018.53
2017-06-19T09:28:53.405Z,1018.52
2017-06-19T09:30:53.481Z,1018.56
2017-06-19T09:31:53.519Z,1018.55
2017-06-19T09:32:53.555Z,1018.57
2017-06-19T09:33:53.593Z,1018.52
2017-06-19T09:34:53.631Z,1018.5
2017-06-19T09:35:53.668Z,1018.51
2017-06-19T09:36:53.706Z,1018.47
2017-06-19T09:37:53.744Z,1018.45
2017-06-19T09:38:53.781Z,1018.47
2017-06-19T09:39:53.818Z,1018.46
2017-06-19T09:40:53.856Z,1018.45
2017-06-19T09:41:53.893Z,1018.5
2017-06-19T09:42:53.931Z,1018.49
2017-06-19T09:43:53.967Z,1018.48
2017-06-19T09:44:54.005Z,1018.44
2017-06-19T09:46:54.080Z,1018.43
2017-06-19T09:47:54.117Z,1018.43
2017-06-19T09:48:54.154Z,1018.4
2017-06-19T09:49:54.191Z,1018.42
2017-06-19T09:50:54.227Z,1018.43
2017-06-19T09:51:54.265Z,1018.39
2017-06-19T09:52:54.302Z,1018.44
2017-06-19T09:53:54.341Z,1018.43
2017-06-19T09:54:54.378Z,1018.42
2017-06-19T09:55:54.411Z,1018.39
2017-06-19T09:56:54.448Z,1018.41
2017-06-19T09:57:54.485Z,1018.37
2017-06-19T09:58:54.519Z,1018.37
2017-06-19T09:59:54.555Z,1018.42
2017-06-19T10:00:54.642Z,1018.46
2017-06-19T10:02:54.663Z,1018.45
2017-06-19T10:03:54.699Z,1018.43
2017-06-19T10:04:54.735Z,1018.4
2017-06-19T10:05:54.771Z,1018.4
2017-06-19T10:06:54.806Z,1018.41
2017-06-19T10:07:54.843Z,1018.33
2017-06-19T10:08:54.878Z,1018.31
2017-06-19T10:09:54.913Z,1018.31
2017-06-19T10:10:54.950Z,1018.27
2017-06-19T10:11:54.989Z,1018.28
2017-06-19T10:12:55.020Z,1018.3
2017-06-19T10:13:55.055Z,1018.26
2017-06-19T10:14:55.091Z,1018.25
2017-06-19T10:15:55.128Z,1018.25
2017-06-19T10:16:55.162Z,1018.23
2017-06-19T10:18:55.233Z,1018.19
2017-06-19T10:19:55.269Z,1018.17
2017-06-19T10:20:55.304Z,1018.18
2017-06-19T10:21:55.339Z,1018.14
2017-06-19T10:22:55.376Z,1018.1
2017-06-19T10:23:55.410Z,1018.11
2017-06-19T10:24:55.445Z,1018.06
2017-06-19T10:25:55.481Z,1018.05
2017-06-19T10:26:55.517Z,1018.06
2017-06-19T10:27:55.551Z,1018.01
2017-06-19T10:28:55.587Z,1018
2017-06-19T10:29:55.622Z,1017.96
2017-06-19T10:30:55.658Z,1017.97
2017-06-19T10:31:55.694Z,1017.93
2017-06-19T10:33:55.765Z,1017.93
2017-06-19T10:34:55.800Z,1017.86
2017-06-19T10:35:55.835Z,1017.85
2017-06-19T10:36:55.871Z,1017.86
2017-06-19T10:37:55.907Z,1017.84
2017-06-19T10:38:55.942Z,1017.84
2017-06-19T10:39:56.027Z,1017.78
2017-06-19T10:40:56.013Z,1017.82
2017-06-19T10:41:56.046Z,1017.77
2017-06-19T10:42:56.082Z,1017.78
2017-06-19T10:43:56.117Z,1017.78
2017-06-19T10:44:56.153Z,1017.76
2017-06-19T10:45:56.188Z,1017.73
2017-06-19T10:46:56.222Z,1017.74
2017-06-19T10:47:56.257Z,1017.75
2017-06-19T10:48:56.294Z,1017.72
2017-06-19T10:49:56.329Z,1017.7
2017-06-19T10:50:56.363Z,1017.69
2017-06-19T10:51:56.398Z,1017.71
2017-06-19T10:52:56.432Z,1017.7
2017-06-19T10:53:56.468Z,1017.71
2017-06-19T10:54:56.503Z,1017.66
2017-06-19T10:55:56.538Z,1017.68
2017-06-19T10:56:56.573Z,1017.65
2017-06-19T10:57:56.608Z,1017.67
2017-06-19T10:58:56.643Z,1017.65
2017-06-19T10:59:56.679Z,1017.65
2017-06-19T11:00:56.712Z,1017.63
2017-06-19T11:01:56.748Z,1017.62
2017-06-19T11:02:56.783Z,1017.61
2017-06-19T11:03:56.817Z,1017.62
2017-06-19T11:05:56.887Z,1017.57
2017-06-19T11:06:56.923Z,1017.61
2017-06-19T11:07:56.956Z,1017.57
2017-06-19T11:08:56.991Z,1017.57
2017-06-19T11:09:57.027Z,1017.57
2017-06-19T11:10:57.062Z,1017.52
2017-06-19T11:11:57.096Z,1017.52
2017-06-19T11:12:57.130Z,1017.53
2017-06-19T11:13:57.166Z,1017.49
2017-06-19T11:14:57.200Z,1017.5
2017-06-19T11:15:57.235Z,1017.45
2017-06-19T11:16:57.271Z,1017.44
2017-06-19T11:17:57.305Z,1017.42
2017-06-19T11:18:57.339Z,1017.43
2017-06-19T11:19:57.374Z,1017.43
2017-06-19T11:21:57.444Z,1017.41
2017-06-19T11:22:57.528Z,1017.42
2017-06-19T11:23:57.512Z,1017.4
2017-06-19T11:24:57.548Z,1017.36
2017-06-19T11:25:57.632Z,1017.4
2017-06-19T11:26:57.617Z,1017.34
2017-06-19T11:27:57.652Z,1017.36
2017-06-19T11:28:57.686Z,1017.37
2017-06-19T11:29:57.720Z,1017.32
2017-06-19T11:30:57.755Z,1017.32
2017-06-19T11:31:57.790Z,1017.28
2017-06-19T11:32:57.825Z,1017.3
2017-06-19T11:33:57.858Z,1017.29
2017-06-19T11:34:57.893Z,1017.29
2017-06-19T11:35:57.928Z,1017.31
2017-06-19T11:37:57.996Z,1017.24
2017-06-19T11:38:58.082Z,1017.24
2017-06-19T11:39:58.066Z,1017.22
2017-06-19T11:40:58.101Z,1017.18
2017-06-19T11:41:58.135Z,1017.19
2017-06-19T11:42:58.171Z,1017.18
2017-06-19T11:43:58.206Z,1017.13
2017-06-19T11:44:58.239Z,1017.17
2017-06-19T11:45:58.274Z,1017.18
2017-06-19T11:46:58.309Z,1017.2
2017-06-19T11:47:58.342Z,1017.15
2017-06-19T11:48:58.377Z,1017.09
2017-06-19T11:49:58.413Z,1017.09
2017-06-19T11:50:58.447Z,1017.07
2017-06-19T11:51:58.481Z,1017.09
2017-06-19T11:53:58.551Z,1017.01
2017-06-19T11:54:58.585Z,1017.02
2017-06-19T11:55:58.619Z,1016.97
2017-06-19T11:56:58.654Z,1016.98
2017-06-19T11:57:58.688Z,1016.95
2017-06-19T11:58:58.721Z,1016.94
2017-06-19T11:59:58.756Z,1016.98
2017-06-19T12:00:58.791Z,1016.97
2017-06-19T12:01:58.825Z,1016.98
2017-06-19T12:02:58.860Z,1016.91
2017-06-19T12:03:58.894Z,1016.9
2017-06-19T12:04:58.929Z,1016.89
2017-06-19T12:05:58.963Z,1016.83
2017-06-19T12:06:58.997Z,1016.84
2017-06-19T12:08:59.116Z,1016.77
2017-06-19T12:09:59.099Z,1016.77
2017-06-19T12:10:59.135Z,1016.73
2017-06-19T12:11:59.169Z,1016.73
2017-06-19T12:12:59.204Z,1016.72
2017-06-19T12:13:59.237Z,1016.71
2017-06-19T12:14:59.271Z,1016.72
2017-06-19T12:15:59.306Z,1016.69
2017-06-19T12:16:59.340Z,1016.63
2017-06-19T12:17:59.374Z,1016.64
2017-06-19T12:18:59.408Z,1016.61
2017-06-19T12:19:59.443Z,1016.62
2017-06-19T12:20:59.478Z,1016.61
2017-06-19T12:21:59.761Z,1016.56
2017-06-19T12:22:59.546Z,1016.58
2017-06-19T12:23:59.579Z,1016.57
2017-06-19T12:24:59.611Z,1016.55
2017-06-19T12:25:59.647Z,1016.55
2017-06-19T12:26:59.684Z,1016.54
2017-06-19T12:27:59.714Z,1016.54
2017-06-19T12:28:59.748Z,1016.53
2017-06-19T12:29:59.783Z,1016.49
2017-06-19T12:30:59.817Z,1016.51
2017-06-19T12:31:59.850Z,1016.48
2017-06-19T12:32:59.885Z,1016.47
2017-06-19T12:33:59.919Z,1016.43
2017-06-19T12:34:59.953Z,1016.46
2017-06-19T12:35:59.986Z,1016.49
2017-06-19T12:37:00.020Z,1016.46
2017-06-19T12:38:00.305Z,1016.41
2017-06-19T12:39:00.088Z,1016.39
2017-06-19T12:41:00.156Z,1016.38
2017-06-19T12:42:00.190Z,1016.38
2017-06-19T12:43:00.223Z,1016.33
2017-06-19T12:44:00.258Z,1016.36
2017-06-19T12:45:00.292Z,1016.36
2017-06-19T12:46:00.326Z,1016.37
2017-06-19T12:47:00.360Z,1016.35
2017-06-19T12:48:00.393Z,1016.34
2017-06-19T12:49:00.477Z,1016.32